sensor_id;sensor_type;location;lat;lon;timestamp;temperature;humidity
43665;DHT22;29263;48.172;11.484;2024-02-14T00:00:00;1.70;99.90
43665;DHT22;29263;48.172;11.484;2024-02-14T00:02:26;1.70;99.90
43665;DHT22;29263;48.172;11.484;2024-02-14T00:04:53;1.70;99.90
43665;DHT22;29263;48.172;11.484;2024-02-14T00:07:19;1.70;99.90
43665;DHT22;29263;48.172;11.484;2024-02-14T00:09:44;1.70;99.90
43665;DHT22;29263;48.172;11.484;2024-02-14T00:12:10;1.70;99.90
43665;DHT22;29263;48.172;11.484;2024-02-14T00:14:37;1.70;99.90
43665;DHT22;29263;48.172;11.484;2024-02-14T00:17:03;1.70;99.90
43665;DHT22;29263;48.172;11.484;2024-02-14T00:19:29;1.70;99.90
43665;DHT22;29263;48.172;11.484;2024-02-14T00:21:55;1.70;99.90
43665;DHT22;29263;48.172;11.484;2024-02-14T00:24:20;1.70;99.90
43665;DHT22;29263;48.172;11.484;2024-02-14T00:26:48;1.80;99.90
43665;DHT22;29263;48.172;11.484;2024-02-14T00:29:14;1.80;99.90
43665;DHT22;29263;48.172;11.484;2024-02-14T00:31:40;1.90;99.90
43665;DHT22;29263;48.172;11.484;2024-02-14T00:34:06;1.90;99.90
43665;DHT22;29263;48.172;11.484;2024-02-14T00:36:31;1.90;99.90
43665;DHT22;29263;48.172;11.484;2024-02-14T00:38:57;1.90;99.90
43665;DHT22;29263;48.172;11.484;2024-02-14T00:41:23;1.90;99.90
43665;DHT22;29263;48.172;11.484;2024-02-14T00:43:48;2.00;99.90
43665;DHT22;29263;48.172;11.484;2024-02-14T00:46:17;2.00;99.90
43665;DHT22;29263;48.172;11.484;2024-02-14T00:48:45;2.00;99.90
43665;DHT22;29263;48.172;11.484;2024-02-14T00:51:11;2.00;99.90
43665;DHT22;29263;48.172;11.484;2024-02-14T00:53:37;2.10;99.90
43665;DHT22;29263;48.172;11.484;2024-02-14T00:56:03;2.10;99.90
43665;DHT22;29263;48.172;11.484;2024-02-14T00:58:29;2.10;99.90
43665;DHT22;29263;48.172;11.484;2024-02-14T01:00:54;2.10;99.90
43665;DHT22;29263;48.172;11.484;2024-02-14T01:03:20;2.20;99.90
43665;DHT22;29263;48.172;11.484;2024-02-14T01:05:47;2.20;99.90
43665;DHT22;29263;48.172;11.484;2024-02-14T01:08:12;2.20;99.90
43665;DHT22;29263;48.172;11.484;2024-02-14T01:10:38;2.30;99.90
43665;DHT22;29263;48.172;11.484;2024-02-14T01:13:04;2.30;99.90
43665;DHT22;29263;48.172;11.484;2024-02-14T01:15:31;2.30;99.90
43665;DHT22;29263;48.172;11.484;2024-02-14T01:17:57;2.40;99.90
43665;DHT22;29263;48.172;11.484;2024-02-14T01:20:23;2.40;99.90
43665;DHT22;29263;48.172;11.484;2024-02-14T01:22:48;2.40;99.90
43665;DHT22;29263;48.172;11.484;2024-02-14T01:25:14;2.40;99.90
43665;DHT22;29263;48.172;11.484;2024-02-14T01:27:40;2.40;99.90
43665;DHT22;29263;48.172;11.484;2024-02-14T01:30:07;2.40;99.90
43665;DHT22;29263;48.172;11.484;2024-02-14T01:32:32;2.40;99.90
43665;DHT22;29263;48.172;11.484;2024-02-14T01:34:58;2.50;99.90
43665;DHT22;29263;48.172;11.484;2024-02-14T01:37:25;2.50;99.90
43665;DHT22;29263;48.172;11.484;2024-02-14T01:39:50;2.50;99.90
43665;DHT22;29263;48.172;11.484;2024-02-14T01:42:16;2.50;99.90
43665;DHT22;29263;48.172;11.484;2024-02-14T01:44:41;2.50;99.90
43665;DHT22;29263;48.172;11.484;2024-02-14T01:47:09;2.50;99.90
43665;DHT22;29263;48.172;11.484;2024-02-14T01:49:35;2.50;99.90
43665;DHT22;29263;48.172;11.484;2024-02-14T01:52:02;2.50;99.90
43665;DHT22;29263;48.172;11.484;2024-02-14T01:54:29;2.50;99.90
43665;DHT22;29263;48.172;11.484;2024-02-14T01:56:56;2.60;99.90
43665;DHT22;29263;48.172;11.484;2024-02-14T01:59:24;2.60;99.90
43665;DHT22;29263;48.172;11.484;2024-02-14T02:01:50;2.60;99.90
43665;DHT22;29263;48.172;11.484;2024-02-14T02:04:17;2.70;99.90
43665;DHT22;29263;48.172;11.484;2024-02-14T02:06:43;2.70;99.90
43665;DHT22;29263;48.172;11.484;2024-02-14T02:09:09;2.70;99.90
43665;DHT22;29263;48.172;11.484;2024-02-14T02:11:49;2.70;99.90
43665;DHT22;29263;48.172;11.484;2024-02-14T02:14:15;2.70;99.90
43665;DHT22;29263;48.172;11.484;2024-02-14T02:16:42;2.70;99.90
43665;DHT22;29263;48.172;11.484;2024-02-14T02:19:08;2.80;99.90
43665;DHT22;29263;48.172;11.484;2024-02-14T02:21:35;2.80;99.90
43665;DHT22;29263;48.172;11.484;2024-02-14T02:24:01;2.80;99.90
43665;DHT22;29263;48.172;11.484;2024-02-14T02:26:27;2.80;99.90
43665;DHT22;29263;48.172;11.484;2024-02-14T02:28:53;2.80;99.90
43665;DHT22;29263;48.172;11.484;2024-02-14T02:31:19;2.80;99.90
43665;DHT22;29263;48.172;11.484;2024-02-14T02:33:45;2.80;99.90
43665;DHT22;29263;48.172;11.484;2024-02-14T02:36:11;2.80;99.90
43665;DHT22;29263;48.172;11.484;2024-02-14T02:38:37;2.80;99.90
43665;DHT22;29263;48.172;11.484;2024-02-14T02:41:03;2.80;99.90
43665;DHT22;29263;48.172;11.484;2024-02-14T02:43:32;2.80;99.90
43665;DHT22;29263;48.172;11.484;2024-02-14T02:45:58;2.80;99.90
43665;DHT22;29263;48.172;11.484;2024-02-14T02:48:24;2.80;99.90
43665;DHT22;29263;48.172;11.484;2024-02-14T02:50:50;2.80;99.90
43665;DHT22;29263;48.172;11.484;2024-02-14T02:53:16;2.80;99.90
43665;DHT22;29263;48.172;11.484;2024-02-14T02:55:42;2.80;99.90
43665;DHT22;29263;48.172;11.484;2024-02-14T02:58:08;2.80;99.90
43665;DHT22;29263;48.172;11.484;2024-02-14T03:00:34;2.80;99.90
43665;DHT22;29263;48.172;11.484;2024-02-14T03:03:00;2.80;99.90
43665;DHT22;29263;48.172;11.484;2024-02-14T03:05:26;2.80;99.90
43665;DHT22;29263;48.172;11.484;2024-02-14T03:07:52;2.80;99.90
43665;DHT22;29263;48.172;11.484;2024-02-14T03:10:18;2.80;99.90
43665;DHT22;29263;48.172;11.484;2024-02-14T03:12:48;2.80;99.90
43665;DHT22;29263;48.172;11.484;2024-02-14T03:15:14;2.80;99.90
43665;DHT22;29263;48.172;11.484;2024-02-14T03:17:40;2.80;99.90
43665;DHT22;29263;48.172;11.484;2024-02-14T03:20:06;2.80;99.90
43665;DHT22;29263;48.172;11.484;2024-02-14T03:22:39;2.80;99.90
43665;DHT22;29263;48.172;11.484;2024-02-14T03:25:08;2.80;99.90
43665;DHT22;29263;48.172;11.484;2024-02-14T03:27:35;2.80;99.90
43665;DHT22;29263;48.172;11.484;2024-02-14T03:30:00;2.80;99.90
43665;DHT22;29263;48.172;11.484;2024-02-14T03:32:29;2.90;99.90
43665;DHT22;29263;48.172;11.484;2024-02-14T03:34:54;2.90;99.90
43665;DHT22;29263;48.172;11.484;2024-02-14T03:37:20;2.90;99.90
43665;DHT22;29263;48.172;11.484;2024-02-14T03:39:46;2.90;99.90
43665;DHT22;29263;48.172;11.484;2024-02-14T03:42:12;2.80;99.90
43665;DHT22;29263;48.172;11.484;2024-02-14T03:44:38;2.80;99.90
43665;DHT22;29263;48.172;11.484;2024-02-14T03:47:04;2.80;99.90
43665;DHT22;29263;48.172;11.484;2024-02-14T03:49:29;2.80;99.90
43665;DHT22;29263;48.172;11.484;2024-02-14T03:51:56;2.80;99.90
43665;DHT22;29263;48.172;11.484;2024-02-14T03:54:22;2.80;99.90
43665;DHT22;29263;48.172;11.484;2024-02-14T03:56:48;2.70;99.90
43665;DHT22;29263;48.172;11.484;2024-02-14T03:59:14;2.70;99.90
43665;DHT22;29263;48.172;11.484;2024-02-14T04:01:44;2.70;99.90
43665;DHT22;29263;48.172;11.484;2024-02-14T04:04:10;2.60;99.90
43665;DHT22;29263;48.172;11.484;2024-02-14T04:06:36;2.60;99.90
43665;DHT22;29263;48.172;11.484;2024-02-14T04:09:01;2.60;99.90
43665;DHT22;29263;48.172;11.484;2024-02-14T04:11:27;2.50;99.90
43665;DHT22;29263;48.172;11.484;2024-02-14T04:13:53;2.40;99.90
43665;DHT22;29263;48.172;11.484;2024-02-14T04:16:21;2.40;99.90
43665;DHT22;29263;48.172;11.484;2024-02-14T04:18:47;2.30;99.90
43665;DHT22;29263;48.172;11.484;2024-02-14T04:21:13;2.30;99.90
43665;DHT22;29263;48.172;11.484;2024-02-14T04:23:39;2.20;99.90
43665;DHT22;29263;48.172;11.484;2024-02-14T04:26:06;2.20;99.90
43665;DHT22;29263;48.172;11.484;2024-02-14T04:28:31;2.20;99.90
43665;DHT22;29263;48.172;11.484;2024-02-14T04:30:57;2.20;99.90
43665;DHT22;29263;48.172;11.484;2024-02-14T04:33:23;2.20;99.90
43665;DHT22;29263;48.172;11.484;2024-02-14T04:35:49;2.30;99.90
43665;DHT22;29263;48.172;11.484;2024-02-14T04:38:15;2.30;99.90
43665;DHT22;29263;48.172;11.484;2024-02-14T04:40:41;2.30;99.90
43665;DHT22;29263;48.172;11.484;2024-02-14T04:43:07;2.30;99.90
43665;DHT22;29263;48.172;11.484;2024-02-14T04:45:33;2.40;99.90
43665;DHT22;29263;48.172;11.484;2024-02-14T04:47:58;2.40;99.90
43665;DHT22;29263;48.172;11.484;2024-02-14T04:50:24;2.40;99.90
43665;DHT22;29263;48.172;11.484;2024-02-14T04:52:50;2.50;99.90
43665;DHT22;29263;48.172;11.484;2024-02-14T04:55:15;2.50;99.90
43665;DHT22;29263;48.172;11.484;2024-02-14T04:57:41;2.50;99.90
43665;DHT22;29263;48.172;11.484;2024-02-14T05:00:07;2.60;99.90
43665;DHT22;29263;48.172;11.484;2024-02-14T05:02:34;2.60;99.90
43665;DHT22;29263;48.172;11.484;2024-02-14T05:05:00;2.60;99.90
43665;DHT22;29263;48.172;11.484;2024-02-14T05:07:27;2.60;99.90
43665;DHT22;29263;48.172;11.484;2024-02-14T05:09:52;2.60;99.90
43665;DHT22;29263;48.172;11.484;2024-02-14T05:12:20;2.70;99.90
43665;DHT22;29263;48.172;11.484;2024-02-14T05:14:46;2.70;99.90
43665;DHT22;29263;48.172;11.484;2024-02-14T05:17:13;2.70;99.90
43665;DHT22;29263;48.172;11.484;2024-02-14T05:19:38;2.70;99.90
43665;DHT22;29263;48.172;11.484;2024-02-14T05:22:06;2.70;99.90
43665;DHT22;29263;48.172;11.484;2024-02-14T05:24:32;2.80;99.90
43665;DHT22;29263;48.172;11.484;2024-02-14T05:26:58;2.80;99.90
43665;DHT22;29263;48.172;11.484;2024-02-14T05:29:24;2.80;99.90
43665;DHT22;29263;48.172;11.484;2024-02-14T05:31:49;2.80;99.90
43665;DHT22;29263;48.172;11.484;2024-02-14T05:34:17;2.80;99.90
43665;DHT22;29263;48.172;11.484;2024-02-14T05:36:43;2.80;99.90
43665;DHT22;29263;48.172;11.484;2024-02-14T05:39:11;2.90;99.90
43665;DHT22;29263;48.172;11.484;2024-02-14T05:41:36;2.90;99.90
43665;DHT22;29263;48.172;11.484;2024-02-14T05:44:02;2.90;99.90
43665;DHT22;29263;48.172;11.484;2024-02-14T05:46:28;2.90;99.90
43665;DHT22;29263;48.172;11.484;2024-02-14T05:48:53;3.00;99.90
43665;DHT22;29263;48.172;11.484;2024-02-14T05:51:20;3.00;99.90
43665;DHT22;29263;48.172;11.484;2024-02-14T05:53:46;3.00;99.90
43665;DHT22;29263;48.172;11.484;2024-02-14T05:56:11;3.00;99.90
43665;DHT22;29263;48.172;11.484;2024-02-14T05:58:37;3.10;99.90
43665;DHT22;29263;48.172;11.484;2024-02-14T06:01:03;3.10;99.90
43665;DHT22;29263;48.172;11.484;2024-02-14T06:03:28;3.10;99.90
43665;DHT22;29263;48.172;11.484;2024-02-14T06:05:54;3.20;99.90
43665;DHT22;29263;48.172;11.484;2024-02-14T06:08:20;3.20;99.90
43665;DHT22;29263;48.172;11.484;2024-02-14T06:10:46;3.20;99.90
43665;DHT22;29263;48.172;11.484;2024-02-14T06:13:13;3.20;99.90
43665;DHT22;29263;48.172;11.484;2024-02-14T06:15:38;3.20;99.90
43665;DHT22;29263;48.172;11.484;2024-02-14T06:18:07;3.20;99.90
43665;DHT22;29263;48.172;11.484;2024-02-14T06:20:32;3.20;99.90
43665;DHT22;29263;48.172;11.484;2024-02-14T06:22:58;3.20;99.90
43665;DHT22;29263;48.172;11.484;2024-02-14T06:25:24;3.20;99.90
43665;DHT22;29263;48.172;11.484;2024-02-14T06:27:49;3.30;99.90
43665;DHT22;29263;48.172;11.484;2024-02-14T06:30:15;3.30;99.90
43665;DHT22;29263;48.172;11.484;2024-02-14T06:32:42;3.30;99.90
43665;DHT22;29263;48.172;11.484;2024-02-14T06:35:08;3.30;99.90
43665;DHT22;29263;48.172;11.484;2024-02-14T06:37:33;3.30;99.90
43665;DHT22;29263;48.172;11.484;2024-02-14T06:39:59;3.30;99.90
43665;DHT22;29263;48.172;11.484;2024-02-14T06:42:24;3.30;99.90
43665;DHT22;29263;48.172;11.484;2024-02-14T06:44:50;3.30;99.90
43665;DHT22;29263;48.172;11.484;2024-02-14T06:47:16;3.40;99.90
43665;DHT22;29263;48.172;11.484;2024-02-14T06:49:41;3.40;99.90
43665;DHT22;29263;48.172;11.484;2024-02-14T06:52:07;3.40;99.90
43665;DHT22;29263;48.172;11.484;2024-02-14T06:54:32;3.40;99.90
43665;DHT22;29263;48.172;11.484;2024-02-14T06:56:58;3.40;99.90
43665;DHT22;29263;48.172;11.484;2024-02-14T06:59:25;3.40;99.90
43665;DHT22;29263;48.172;11.484;2024-02-14T07:01:51;3.40;99.90
43665;DHT22;29263;48.172;11.484;2024-02-14T07:04:20;3.40;99.90
43665;DHT22;29263;48.172;11.484;2024-02-14T07:06:51;3.40;99.90
43665;DHT22;29263;48.172;11.484;2024-02-14T07:09:17;3.50;99.90
43665;DHT22;29263;48.172;11.484;2024-02-14T07:11:43;3.60;99.90
43665;DHT22;29263;48.172;11.484;2024-02-14T07:14:08;3.70;99.90
43665;DHT22;29263;48.172;11.484;2024-02-14T07:16:34;3.80;99.90
43665;DHT22;29263;48.172;11.484;2024-02-14T07:18:59;3.90;99.90
43665;DHT22;29263;48.172;11.484;2024-02-14T07:21:25;4.00;99.90
43665;DHT22;29263;48.172;11.484;2024-02-14T07:23:51;4.10;99.90
43665;DHT22;29263;48.172;11.484;2024-02-14T07:26:18;4.20;99.90
43665;DHT22;29263;48.172;11.484;2024-02-14T07:28:43;4.30;99.90
43665;DHT22;29263;48.172;11.484;2024-02-14T07:31:09;4.40;99.90
43665;DHT22;29263;48.172;11.484;2024-02-14T07:33:35;4.50;99.90
43665;DHT22;29263;48.172;11.484;2024-02-14T07:36:00;4.50;99.90
43665;DHT22;29263;48.172;11.484;2024-02-14T07:38:26;4.70;99.90
43665;DHT22;29263;48.172;11.484;2024-02-14T07:40:52;4.70;99.90
43665;DHT22;29263;48.172;11.484;2024-02-14T07:43:18;4.80;99.90
43665;DHT22;29263;48.172;11.484;2024-02-14T07:45:43;4.90;99.90
43665;DHT22;29263;48.172;11.484;2024-02-14T07:48:09;4.90;99.90
43665;DHT22;29263;48.172;11.484;2024-02-14T07:50:35;5.00;99.90
43665;DHT22;29263;48.172;11.484;2024-02-14T07:53:01;5.10;99.90
43665;DHT22;29263;48.172;11.484;2024-02-14T07:55:27;5.20;99.90
43665;DHT22;29263;48.172;11.484;2024-02-14T07:57:53;5.20;99.90
43665;DHT22;29263;48.172;11.484;2024-02-14T08:00:18;5.30;99.90
43665;DHT22;29263;48.172;11.484;2024-02-14T08:02:48;5.30;99.90
43665;DHT22;29263;48.172;11.484;2024-02-14T08:05:14;5.40;99.90
43665;DHT22;29263;48.172;11.484;2024-02-14T08:07:40;5.40;99.90
43665;DHT22;29263;48.172;11.484;2024-02-14T08:10:05;5.50;99.90
43665;DHT22;29263;48.172;11.484;2024-02-14T08:12:31;5.50;99.90
43665;DHT22;29263;48.172;11.484;2024-02-14T08:14:57;5.70;99.90
43665;DHT22;29263;48.172;11.484;2024-02-14T08:17:22;5.70;99.90
43665;DHT22;29263;48.172;11.484;2024-02-14T08:19:48;5.80;99.90
43665;DHT22;29263;48.172;11.484;2024-02-14T08:22:14;5.90;99.90
43665;DHT22;29263;48.172;11.484;2024-02-14T08:24:39;5.90;99.90
43665;DHT22;29263;48.172;11.484;2024-02-14T08:27:05;6.00;99.90
43665;DHT22;29263;48.172;11.484;2024-02-14T08:29:32;6.00;99.90
43665;DHT22;29263;48.172;11.484;2024-02-14T08:31:57;6.00;99.90
43665;DHT22;29263;48.172;11.484;2024-02-14T08:34:23;6.00;99.90
43665;DHT22;29263;48.172;11.484;2024-02-14T08:36:49;6.10;99.90
43665;DHT22;29263;48.172;11.484;2024-02-14T08:39:15;6.10;99.90
43665;DHT22;29263;48.172;11.484;2024-02-14T08:41:40;6.30;99.90
43665;DHT22;29263;48.172;11.484;2024-02-14T08:44:08;6.40;99.90
43665;DHT22;29263;48.172;11.484;2024-02-14T08:46:34;6.50;99.90
43665;DHT22;29263;48.172;11.484;2024-02-14T08:49:00;6.60;99.90
43665;DHT22;29263;48.172;11.484;2024-02-14T08:51:34;6.70;99.90
43665;DHT22;29263;48.172;11.484;2024-02-14T08:54:00;6.90;99.90
43665;DHT22;29263;48.172;11.484;2024-02-14T08:56:26;7.30;99.90
43665;DHT22;29263;48.172;11.484;2024-02-14T08:58:51;7.40;99.90
43665;DHT22;29263;48.172;11.484;2024-02-14T09:01:17;7.60;99.30
43665;DHT22;29263;48.172;11.484;2024-02-14T09:03:43;7.80;99.00
43665;DHT22;29263;48.172;11.484;2024-02-14T09:06:15;8.00;97.10
43665;DHT22;29263;48.172;11.484;2024-02-14T09:08:43;8.10;96.20
43665;DHT22;29263;48.172;11.484;2024-02-14T09:11:09;8.30;96.20
43665;DHT22;29263;48.172;11.484;2024-02-14T09:13:35;8.60;94.60
43665;DHT22;29263;48.172;11.484;2024-02-14T09:16:00;8.80;94.30
43665;DHT22;29263;48.172;11.484;2024-02-14T09:18:26;9.00;93.60
43665;DHT22;29263;48.172;11.484;2024-02-14T09:20:52;9.10;92.90
43665;DHT22;29263;48.172;11.484;2024-02-14T09:23:18;9.20;92.70
43665;DHT22;29263;48.172;11.484;2024-02-14T09:25:48;9.30;92.90
43665;DHT22;29263;48.172;11.484;2024-02-14T09:28:16;9.40;91.90
43665;DHT22;29263;48.172;11.484;2024-02-14T09:30:41;9.50;90.00
43665;DHT22;29263;48.172;11.484;2024-02-14T09:33:07;9.50;89.70
43665;DHT22;29263;48.172;11.484;2024-02-14T09:35:33;9.50;88.80
43665;DHT22;29263;48.172;11.484;2024-02-14T09:37:58;9.60;87.40
43665;DHT22;29263;48.172;11.484;2024-02-14T09:40:25;9.60;86.70
43665;DHT22;29263;48.172;11.484;2024-02-14T09:42:54;9.60;89.50
43665;DHT22;29263;48.172;11.484;2024-02-14T09:45:25;9.60;88.10
43665;DHT22;29263;48.172;11.484;2024-02-14T09:47:52;9.60;88.00
43665;DHT22;29263;48.172;11.484;2024-02-14T09:50:19;9.70;90.20
43665;DHT22;29263;48.172;11.484;2024-02-14T09:52:49;9.70;89.20
43665;DHT22;29263;48.172;11.484;2024-02-14T09:55:16;9.70;88.00
43665;DHT22;29263;48.172;11.484;2024-02-14T09:57:43;9.80;87.40
43665;DHT22;29263;48.172;11.484;2024-02-14T10:00:12;9.90;86.50
43665;DHT22;29263;48.172;11.484;2024-02-14T10:02:40;9.90;86.00
43665;DHT22;29263;48.172;11.484;2024-02-14T10:05:07;10.00;86.60
43665;DHT22;29263;48.172;11.484;2024-02-14T10:07:42;10.00;87.20
43665;DHT22;29263;48.172;11.484;2024-02-14T10:10:09;10.10;85.60
43665;DHT22;29263;48.172;11.484;2024-02-14T10:12:35;10.20;85.80
43665;DHT22;29263;48.172;11.484;2024-02-14T10:15:01;10.20;85.80
43665;DHT22;29263;48.172;11.484;2024-02-14T10:17:30;10.40;85.30
43665;DHT22;29263;48.172;11.484;2024-02-14T10:20:01;10.50;85.60
43665;DHT22;29263;48.172;11.484;2024-02-14T10:22:38;10.60;83.50
43665;DHT22;29263;48.172;11.484;2024-02-14T10:25:04;10.80;82.90
43665;DHT22;29263;48.172;11.484;2024-02-14T10:27:37;10.90;81.10
43665;DHT22;29263;48.172;11.484;2024-02-14T10:30:05;11.00;82.50
43665;DHT22;29263;48.172;11.484;2024-02-14T10:32:34;11.10;82.20
43665;DHT22;29263;48.172;11.484;2024-02-14T10:35:00;11.00;82.60
43665;DHT22;29263;48.172;11.484;2024-02-14T10:37:29;11.00;82.90
43665;DHT22;29263;48.172;11.484;2024-02-14T10:39:56;11.00;82.40
43665;DHT22;29263;48.172;11.484;2024-02-14T10:42:23;11.10;83.90
43665;DHT22;29263;48.172;11.484;2024-02-14T10:44:49;11.30;80.70
43665;DHT22;29263;48.172;11.484;2024-02-14T10:47:19;11.50;82.10
43665;DHT22;29263;48.172;11.484;2024-02-14T10:49:49;11.80;81.70
43665;DHT22;29263;48.172;11.484;2024-02-14T10:52:17;12.00;79.60
43665;DHT22;29263;48.172;11.484;2024-02-14T10:54:50;12.00;80.10
43665;DHT22;29263;48.172;11.484;2024-02-14T10:57:19;11.90;79.60
43665;DHT22;29263;48.172;11.484;2024-02-14T10:59:46;11.90;80.70
43665;DHT22;29263;48.172;11.484;2024-02-14T11:02:14;12.00;80.60
43665;DHT22;29263;48.172;11.484;2024-02-14T11:04:40;12.10;79.70
43665;DHT22;29263;48.172;11.484;2024-02-14T11:07:09;12.20;78.90
43665;DHT22;29263;48.172;11.484;2024-02-14T11:09:38;12.30;79.70
43665;DHT22;29263;48.172;11.484;2024-02-14T11:12:07;12.30;78.90
43665;DHT22;29263;48.172;11.484;2024-02-14T11:14:36;12.40;79.30
43665;DHT22;29263;48.172;11.484;2024-02-14T11:17:04;12.40;80.60
43665;DHT22;29263;48.172;11.484;2024-02-14T11:19:35;12.50;79.40
43665;DHT22;29263;48.172;11.484;2024-02-14T11:22:13;12.60;79.60
43665;DHT22;29263;48.172;11.484;2024-02-14T11:24:46;12.70;79.50
43665;DHT22;29263;48.172;11.484;2024-02-14T11:27:12;12.70;79.20
43665;DHT22;29263;48.172;11.484;2024-02-14T11:29:50;12.80;79.30
43665;DHT22;29263;48.172;11.484;2024-02-14T11:32:17;12.70;80.30
43665;DHT22;29263;48.172;11.484;2024-02-14T11:34:53;12.80;79.90
43665;DHT22;29263;48.172;11.484;2024-02-14T11:37:27;12.90;81.80
43665;DHT22;29263;48.172;11.484;2024-02-14T11:39:54;13.00;80.30
43665;DHT22;29263;48.172;11.484;2024-02-14T11:42:23;13.00;80.50
43665;DHT22;29263;48.172;11.484;2024-02-14T11:44:48;13.00;81.30
43665;DHT22;29263;48.172;11.484;2024-02-14T11:47:14;13.00;80.30
43665;DHT22;29263;48.172;11.484;2024-02-14T11:49:40;13.00;81.20
43665;DHT22;29263;48.172;11.484;2024-02-14T11:52:10;13.00;82.70
43665;DHT22;29263;48.172;11.484;2024-02-14T11:54:36;13.10;81.10
43665;DHT22;29263;48.172;11.484;2024-02-14T11:57:05;13.00;81.50
43665;DHT22;29263;48.172;11.484;2024-02-14T11:59:57;13.10;81.00
43665;DHT22;29263;48.172;11.484;2024-02-14T12:02:22;13.20;83.40
43665;DHT22;29263;48.172;11.484;2024-02-14T12:04:48;13.30;80.50
43665;DHT22;29263;48.172;11.484;2024-02-14T12:07:16;13.30;80.70
43665;DHT22;29263;48.172;11.484;2024-02-14T12:09:43;13.30;80.30
43665;DHT22;29263;48.172;11.484;2024-02-14T12:12:08;13.30;80.50
43665;DHT22;29263;48.172;11.484;2024-02-14T12:14:34;13.30;80.60
43665;DHT22;29263;48.172;11.484;2024-02-14T12:17:00;13.40;79.40
43665;DHT22;29263;48.172;11.484;2024-02-14T12:19:28;13.50;79.10
43665;DHT22;29263;48.172;11.484;2024-02-14T12:21:54;13.60;78.60
43665;DHT22;29263;48.172;11.484;2024-02-14T12:24:21;13.70;78.90
43665;DHT22;29263;48.172;11.484;2024-02-14T12:26:48;13.60;78.20
43665;DHT22;29263;48.172;11.484;2024-02-14T12:29:18;13.60;78.00
43665;DHT22;29263;48.172;11.484;2024-02-14T12:31:43;13.60;77.70
43665;DHT22;29263;48.172;11.484;2024-02-14T12:34:11;13.60;78.30
43665;DHT22;29263;48.172;11.484;2024-02-14T12:36:37;13.60;78.40
43665;DHT22;29263;48.172;11.484;2024-02-14T12:39:03;13.70;79.10
43665;DHT22;29263;48.172;11.484;2024-02-14T12:41:30;13.80;77.20
43665;DHT22;29263;48.172;11.484;2024-02-14T12:46:48;14.00;75.90
43665;DHT22;29263;48.172;11.484;2024-02-14T12:49:19;13.80;76.00
43665;DHT22;29263;48.172;11.484;2024-02-14T12:51:45;13.70;77.00
43665;DHT22;29263;48.172;11.484;2024-02-14T12:54:11;13.60;81.80
43665;DHT22;29263;48.172;11.484;2024-02-14T12:56:40;13.40;84.30
43665;DHT22;29263;48.172;11.484;2024-02-14T12:59:05;13.20;85.30
43665;DHT22;29263;48.172;11.484;2024-02-14T13:01:31;13.10;84.90
43665;DHT22;29263;48.172;11.484;2024-02-14T13:03:57;13.10;86.50
43665;DHT22;29263;48.172;11.484;2024-02-14T13:06:23;13.10;87.00
43665;DHT22;29263;48.172;11.484;2024-02-14T13:08:49;13.00;87.10
43665;DHT22;29263;48.172;11.484;2024-02-14T13:11:15;13.10;90.20
43665;DHT22;29263;48.172;11.484;2024-02-14T13:13:41;13.10;90.00
43665;DHT22;29263;48.172;11.484;2024-02-14T13:16:08;13.20;89.70
43665;DHT22;29263;48.172;11.484;2024-02-14T13:18:33;13.30;89.80
43665;DHT22;29263;48.172;11.484;2024-02-14T13:21:00;13.40;90.10
43665;DHT22;29263;48.172;11.484;2024-02-14T13:23:29;13.40;88.70
43665;DHT22;29263;48.172;11.484;2024-02-14T13:25:55;13.40;88.20
43665;DHT22;29263;48.172;11.484;2024-02-14T13:28:27;13.40;89.40
43665;DHT22;29263;48.172;11.484;2024-02-14T13:30:56;13.30;88.50
43665;DHT22;29263;48.172;11.484;2024-02-14T13:33:22;13.30;90.00
43665;DHT22;29263;48.172;11.484;2024-02-14T13:35:48;13.30;89.60
43665;DHT22;29263;48.172;11.484;2024-02-14T13:38:14;13.30;88.90
43665;DHT22;29263;48.172;11.484;2024-02-14T13:40:39;13.30;89.30
43665;DHT22;29263;48.172;11.484;2024-02-14T13:43:05;13.40;88.50
43665;DHT22;29263;48.172;11.484;2024-02-14T13:45:41;13.40;88.40
43665;DHT22;29263;48.172;11.484;2024-02-14T13:48:10;13.60;87.40
43665;DHT22;29263;48.172;11.484;2024-02-14T13:50:36;13.60;87.80
43665;DHT22;29263;48.172;11.484;2024-02-14T13:53:03;13.80;87.80
43665;DHT22;29263;48.172;11.484;2024-02-14T13:55:29;13.80;85.90
43665;DHT22;29263;48.172;11.484;2024-02-14T13:57:55;13.80;84.90
43665;DHT22;29263;48.172;11.484;2024-02-14T14:00:20;13.80;83.80
43665;DHT22;29263;48.172;11.484;2024-02-14T14:02:46;13.80;84.20
43665;DHT22;29263;48.172;11.484;2024-02-14T14:05:12;13.80;83.60
43665;DHT22;29263;48.172;11.484;2024-02-14T14:07:41;13.90;84.40
43665;DHT22;29263;48.172;11.484;2024-02-14T14:10:08;14.00;83.40
43665;DHT22;29263;48.172;11.484;2024-02-14T14:12:34;14.00;83.60
43665;DHT22;29263;48.172;11.484;2024-02-14T14:15:04;14.10;83.80
43665;DHT22;29263;48.172;11.484;2024-02-14T14:17:30;14.30;82.80
43665;DHT22;29263;48.172;11.484;2024-02-14T14:19:59;14.50;82.30
43665;DHT22;29263;48.172;11.484;2024-02-14T14:22:25;14.80;81.60
43665;DHT22;29263;48.172;11.484;2024-02-14T14:24:51;15.00;82.20
43665;DHT22;29263;48.172;11.484;2024-02-14T14:27:28;14.90;81.10
43665;DHT22;29263;48.172;11.484;2024-02-14T14:29:54;15.10;81.20
43665;DHT22;29263;48.172;11.484;2024-02-14T14:32:20;15.20;80.10
43665;DHT22;29263;48.172;11.484;2024-02-14T14:34:49;15.00;80.30
43665;DHT22;29263;48.172;11.484;2024-02-14T14:37:15;14.80;81.10
43665;DHT22;29263;48.172;11.484;2024-02-14T14:39:46;14.70;81.60
43665;DHT22;29263;48.172;11.484;2024-02-14T14:42:14;15.00;81.50
43665;DHT22;29263;48.172;11.484;2024-02-14T14:44:40;16.10;78.40
43665;DHT22;29263;48.172;11.484;2024-02-14T14:47:07;17.20;75.80
43665;DHT22;29263;48.172;11.484;2024-02-14T14:49:32;17.60;73.50
43665;DHT22;29263;48.172;11.484;2024-02-14T14:51:59;17.30;73.90
43665;DHT22;29263;48.172;11.484;2024-02-14T14:54:25;17.30;74.20
43665;DHT22;29263;48.172;11.484;2024-02-14T14:56:53;17.30;74.10
43665;DHT22;29263;48.172;11.484;2024-02-14T14:59:19;17.00;75.20
43665;DHT22;29263;48.172;11.484;2024-02-14T15:01:45;16.30;75.90
43665;DHT22;29263;48.172;11.484;2024-02-14T15:04:10;15.80;77.50
43665;DHT22;29263;48.172;11.484;2024-02-14T15:06:36;15.30;79.70
43665;DHT22;29263;48.172;11.484;2024-02-14T15:09:11;14.90;81.50
43665;DHT22;29263;48.172;11.484;2024-02-14T15:11:37;14.60;83.10
43665;DHT22;29263;48.172;11.484;2024-02-14T15:14:03;14.20;85.60
43665;DHT22;29263;48.172;11.484;2024-02-14T15:16:32;14.00;87.60
43665;DHT22;29263;48.172;11.484;2024-02-14T15:19:00;13.90;88.50
43665;DHT22;29263;48.172;11.484;2024-02-14T15:21:26;13.70;89.40
43665;DHT22;29263;48.172;11.484;2024-02-14T15:23:52;13.60;90.10